Home > Products > Valid Products > TAF

000
FTUS43 KSGF 160500
TAFSGF
TAF
KSGF 160520Z 1606/1706 14008KT P6SM SCT250
     FM161500 17020G28KT P6SM SKC
     FM170200 17010KT P6SM BKN250=



000
FTUS43 KSGF 160500
TAFJLN
TAF
KJLN 160520Z 1606/1706 14008KT P6SM SKC
     FM160800 17012KT P6SM SKC WS015/19040KT
     FM161400 19022G30KT P6SM SKC
     FM170000 18010KT P6SM BKN250=



000
FTUS43 KSGF 152300
TAFSGF
TAF
KSGF 152320Z 1600/1624 VRB04KT P6SM SKC
     FM160300 16008KT P6SM SKC
     FM161500 17018G28KT P6SM SKC=



000
FTUS43 KSGF 152300
TAFJLN
TAF
KJLN 152320Z 1600/1624 VRB04KT P6SM SKC
     FM160200 16008KT P6SM SKC
     FM160800 17012KT P6SM SKC WS015/19040KT
     FM161500 19022G30KT P6SM SKC=



000
FTUS43 KSGF 151700
TAFJLN
TAF
KJLN 151720Z 1518/1618 VRB05KT P6SM SKC
     FM160800 17012KT P6SM SKC WS015/19040KT
     FM161500 19015G25KT P6SM SKC=



000
FTUS43 KSGF 151700
TAFSGF
TAF
KSGF 151720Z 1518/1618 VRB05KT P6SM SKC
     FM160600 16010KT P6SM SKC
     FM161500 18012G22KT P6SM SKC=



000
FTUS43 KSGF 151100
TAFSGF
TAF
KSGF 151120Z 1512/1612 30003KT P6SM SKC
     FM151500 30007KT P6SM SKC
     FM152200 VRB05KT P6SM SKC
     FM160600 16010G15KT P6SM SKC=



000
FTUS43 KSGF 151100
TAFJLN
TAF
KJLN 151120Z 1512/1612 30003KT P6SM SKC
     FM151600 30007KT P6SM SKC
     FM152200 VRB05KT P6SM SKC
     FM160500 17010KT P6SM SKC=



000
FTUS43 KSGF 150500
TAFJLN
TAF
KJLN 150520Z 1506/1606 VRB04KT P6SM SKC
     FM151600 30007KT P6SM SKC
     FM152000 20007KT P6SM SKC=



000
FTUS43 KSGF 150500
TAFSGF
TAF
KSGF 150520Z 1506/1606 31005KT P6SM SKC
     FM152100 26005KT P6SM SKC
     FM160100 18005KT P6SM SKC=



000
FTUS43 KSGF 150000 AAA
TAFSGF
TAF AMD
KSGF 150019Z 1500/1524 33014KT P6SM SCT030
     FM150100 34008KT P6SM SKC
     FM150400 VRB05KT P6SM SKC
     FM151400 32007KT P6SM SKC=



000
FTUS43 KSGF 142300
TAFSGF
TAF
KSGF 142320Z 1500/1524 33014KT P6SM BKN025
     FM150100 34008KT P6SM SKC
     FM150400 VRB05KT P6SM SKC
     FM151400 32007KT P6SM SKC=



000
FTUS43 KSGF 142300
TAFJLN
TAF
KJLN 142320Z 1500/1524 35012KT P6SM SKC
     FM150200 VRB05KT P6SM SKC
     FM151400 30007KT P6SM SKC=



000
FTUS43 KSGF 142100 AAB
TAFSGF
TAF AMD
KSGF 142154Z 1422/1518 33016G25KT P6SM SCT025 BKN030
     FM150100 34008KT P6SM SKC
     FM150400 VRB05KT P6SM SKC
     FM151400 32007KT P6SM SKC=



000
FTUS43 KSGF 142000 AAA
TAFSGF
TAF AMD
KSGF 142051Z 1421/1518 33016G25KT P6SM OVC020
     FM142300 34008KT P6SM SKC
     FM150400 VRB05KT P6SM SKC
     FM151400 32007KT P6SM SKC=



000
FTUS43 KSGF 141900 AAA
TAFSGF
TAF AMD
KSGF 141912Z 1419/1518 33016G25KT P6SM OVC020
      TEMPO 1419/1421 2SM -SN OVC015
     FM142100 33016G25KT P6SM OVC050
     FM150100 34008KT P6SM SKC
     FM150400 VRB05KT P6SM SKC
     FM151400 32007KT P6SM SKC=



000
FTUS43 KSGF 141700
TAFSGF
TAF
KSGF 141727Z 1418/1518 33016G25KT P6SM OVC010
     FM141900 33016G25KT P6SM OVC020
     FM142045 33016G25KT P6SM OVC050
     FM150100 34008KT P6SM SKC
     FM150400 VRB05KT P6SM SKC
     FM151400 32007KT P6SM SKC=



000
FTUS43 KSGF 141700
TAFJLN
TAF
KJLN 141727Z 1418/1518 33016G25KT 3SM -SN BR OVC015
     FM142000 34015G23KT P6SM OVC050
     FM150000 34009KT P6SM SKC
     FM150200 VRB05KT P6SM SKC
     FM151400 30007KT P6SM SKC=



000
FTUS43 KSGF 141200 CCA
TAFJLN
TAF COR
KJLN 141206Z 1412/1512 34015G25KT 6SM -DZ BR SCT007 OVC014
      TEMPO 1412/1415 OVC007
     FM141500 35015G26KT 6SM -RASN BR SCT008 OVC016
     FM142000 35015G22KT P6SM OVC025
     FM150000 34012KT P6SM BKN050
     FM150200 35008KT P6SM SKC=



000
FTUS43 KSGF 141100
TAFSGF
TAF
KSGF 141131Z 1412/1512 32014G25KT 5SM -DZ BR OVC007
     FM141700 34015G27KT 5SM -RASN BR BKN007 OVC014
     FM142200 34014G24KT P6SM SCT010 OVC025
     FM150000 34013KT P6SM BKN025
     FM150300 34008KT P6SM SKC=



000
FTUS43 KSGF 141100
TAFJLN
TAF
KJLN 141131Z 1412/1512 34015G25KT 6SM -DZ BR SCT007 OVC014
     FM141500 35015G26KT 6SM -RASN BR SCT008 OVC016
     FM142000 35015G22KT P6SM OVC025
     FM150000 34012KT P6SM BKN050
     FM150200 35008KT P6SM SKC=



000
FTUS43 KSGF 140500 CCB
TAFSGF
TAF COR
KSGF 140553Z 1406/1506 32014G25KT 5SM -DZ BR BKN007 OVC014
     FM141600 34018G28KT 5SM -RA BR OVC015
     FM142100 34018G28KT P6SM OVC025=



000
FTUS43 KSGF 140500 CCA
TAFJLN
TAF COR
KJLN 140550Z 1406/1506 32015G25KT 6SM -DZ BR BKN007 OVC014
     FM141400 35018G28KT 6SM -RASN BR OVC015
     FM142100 35015G22KT P6SM OVC025
     FM150000 34010KT P6SM SKC=



000
FTUS43 KSGF 140500 CCA
TAFSGF
TAF COR
KSGF 140546Z 1406/1506 32014G25KT 5SM -DZ BR OVC005
     FM141600 34018G28KT 5SM -RA BR OVC015
     FM142100 34018G28KT P6SM OVC025=



000
FTUS43 KSGF 140500
TAFJLN
TAF
KJLN 140520Z 1406/1506 30015G25KT 4SM -DZ BR OVC007
     FM141400 35018G28KT 6SM -RASN BR OVC015
     FM142100 35015G22KT P6SM OVC025
     FM150000 34010KT P6SM SKC=



000
FTUS43 KSGF 140500
TAFSGF
TAF
KSGF 140520Z 1406/1506 32013G23KT P6SM OVC015
     FM140800 33013G22KT 3SM BR OVC007
     FM141000 34012KT 5SM -RA BR OVC004
     FM141600 34018G28KT 5SM -RA BR OVC015
     FM142100 34018G28KT P6SM OVC025=



000
FTUS43 KSGF 140400 AAB
TAFSGF
TAF AMD
KSGF 140428Z 1404/1424 23006KT P6SM OVC020
     FM140600 32013G23KT 5SM -RA BR OVC015
     FM140800 33013G22KT 3SM -RA BR OVC004
     FM141000 33012G22KT 2SM -RA BR OVC002
     FM141400 34012KT 5SM BR OVC004
     FM142100 34012KT P6SM OVC012=



000
FTUS43 KSGF 140400 AAD
TAFJLN
TAF AMD
KJLN 140409Z 1404/1424 30020G28KT 4SM -DZ BR OVC007
     FM140700 33013G23KT 6SM -RA BR OVC008
     FM140900 32015KT 4SM -RA BR OVC005
     FM141400 34012KT 6SM BR OVC008
     FM142100 34015KT P6SM OVC012=



000
FTUS43 KSGF 140300 AAA
TAFSGF
TAF AMD
KSGF 140347Z 1404/1424 23006KT P6SM BKN150
     FM140600 32013G23KT 5SM -RA BR OVC008
     FM140800 33013G22KT 3SM -RA BR OVC004
     FM141000 33012G22KT 2SM -RA BR OVC002
     FM141400 34012KT 5SM BR OVC004
     FM142100 34012KT P6SM OVC012=



000
FTUS43 KSGF 140300 AAC
TAFJLN
TAF AMD
KJLN 140309Z 1403/1424 30020G30KT P6SM OVC005
     FM140700 33013G23KT 6SM -RA BR OVC008
     FM140900 32015KT 4SM -RA BR OVC005
     FM141400 34012KT 6SM BR OVC008
     FM142100 34015KT P6SM OVC012=



000
FTUS43 KSGF 140100 AAB
TAFJLN
TAF AMD
KJLN 140104Z 1401/1424 26010KT P6SM -SHRA BKN080 OVC100
     FM140700 33013G23KT 6SM -RA BR OVC008
     FM140900 32015KT 4SM -RA BR OVC005
     FM141400 34012KT 6SM BR OVC008
     FM142100 34015KT P6SM OVC012=



000
FTUS43 KSGF 140100 AAB
TAFSGF
TAF AMD
KSGF 140102Z 1401/1424 22006KT P6SM -SHRA SCT045 OVC070
     FM140600 32013G23KT 5SM -RA BR OVC008
     FM140800 33013G22KT 3SM -RA BR OVC004
     FM141000 33012G22KT 2SM -RA BR OVC002
     FM141400 34012KT 5SM BR OVC004
     FM142100 34012KT P6SM OVC012=



000
FTUS43 KSGF 140000 AAA
TAFJLN
TAF AMD
KJLN 140012Z 1400/1424 30010G25KT 5SM TSRA BR SCT015 BKN025CB
      OVC050
     FM140130 26015G25KT 5SM -SHRA BR BKN009CB OVC070
     FM140700 33013G23KT 6SM -RA BR OVC008
     FM140900 32015KT 4SM -RA BR OVC005
     FM141400 34012KT 6SM BR OVC008
     FM142100 34015KT P6SM OVC012=



000
FTUS43 KSGF 140000 AAA
TAFSGF
TAF AMD
KSGF 140012Z 1400/1424 18022G30KT 3SM -TSRA BR SCT025CB OVC050
      TEMPO 1400/1401 28025G45KT 2SM TSRA OVC025CB
     FM140200 28012G25KT 5SM -TSRA BR BKN025CB OVC050
     FM140600 32013G23KT 5SM -RA BR OVC008
     FM140800 33013G22KT 3SM -RA BR OVC004
     FM141000 33012G22KT 2SM -RA BR OVC002
     FM141400 34012KT 5SM BR OVC004
     FM142100 34012KT P6SM OVC012=



000
FTUS43 KSGF 132300
TAFJLN
TAF
KJLN 132330Z 1400/1424 30010G25KT 3SM -SHRA BR SCT015 BKN025CB
      OVC050
     FM140300 26015G25KT 5SM -SHRA BR BKN009CB OVC070
     FM140700 33013G23KT 6SM -RA BR OVC008
     FM140900 32015KT 4SM -RA BR OVC005
     FM141400 34012KT 6SM BR OVC008
     FM142100 34015KT P6SM OVC012=



000
FTUS43 KSGF 132300
TAFSGF
TAF
KSGF 132330Z 1400/1424 18022G30KT P6SM VCTS BKN022 OVC050CB
      TEMPO 1400/1401 28025G35KT 3SM TSRA OVC015CB
     FM140200 28012G25KT 5SM -TSRA BR BKN025CB OVC050
     FM140600 32013G23KT 5SM -RA BR OVC008
     FM140800 33013G22KT 3SM -RA BR OVC004
     FM141000 33012G22KT 2SM -RA BR OVC002
     FM141400 34012KT 5SM BR OVC004
     FM142100 34012KT P6SM OVC012=



000
FTUS43 KSGF 131800 AAA
TAFJLN
TAF AMD
KJLN 131801Z 1318/1418 17023G35KT P6SM VCTS SCT025CB BKN060
     FM132200 22016G28KT 5SM -TSRA BR BKN025CB OVC050
     FM140300 26015G25KT 5SM -SHRA BR BKN009CB OVC025
     FM140700 33013G23KT 6SM -RA BR OVC008
     FM140900 32015KT 4SM -RA BR OVC005
     FM141400 34012KT 6SM BR OVC008=



000
FTUS43 KSGF 131700 AAA
TAFSGF
TAF AMD
KSGF 131757Z 1318/1418 15015G24KT P6SM VCTS BKN050CB BKN100
     FM132300 20013G26KT 5SM -TSRA BR BKN025CB OVC050
     FM140600 27013G23KT 5SM -RA BR OVC008
     FM140800 33013G22KT 3SM -RA BR OVC004
     FM141000 33012G22KT 2SM -RA BR OVC002
     FM141400 34012KT 5SM BR OVC004=



000
FTUS43 KSGF 131700
TAFJLN
TAF
KJLN 131720Z 1318/1418 17012G22KT P6SM VCTS BKN050CB OVC080
     FM132200 22016G28KT 5SM -TSRA BR BKN025CB OVC050
     FM140300 26015G25KT 5SM -SHRA BR BKN009CB OVC025
     FM140700 33013G23KT 6SM -RA BR OVC008
     FM140900 32015KT 4SM -RA BR OVC005
     FM141400 34012KT 6SM BR OVC008=



000
FTUS43 KSGF 131700
TAFSGF
TAF
KSGF 131720Z 1318/1418 17012G22KT P6SM -RA VCTS BKN050CB OVC080
     FM132300 20013G26KT 5SM -TSRA BR BKN025CB OVC050
     FM140600 27013G23KT 5SM -RA BR OVC008
     FM140800 33013G22KT 3SM -RA BR OVC004
     FM141000 33012G22KT 2SM -RA BR OVC002
     FM141400 34012KT 5SM BR OVC004=



000
FTUS43 KSGF 131600 AAC
TAFSGF
TAF AMD
KSGF 131636Z 1317/1412 19012G22KT P6SM -RA VCTS BKN060CB OVC090
     FM131800 18020G28KT P6SM VCTS SCT025 BKN050CB
     FM132300 21013G26KT 5SM -TSRA BR BKN025CB OVC050
     FM140400 32014G24KT 5SM -SHRA BR OVC008
     FM140800 33013G22KT 6SM BR BKN008 OVC020=



000
FTUS43 KSGF 131500 AAA
TAFJLN
TAF AMD
KJLN 131600Z 1316/1412 17013G22KT 6SM -RA BR VCSH BKN050CB OVC080
     FM131700 19022G30KT P6SM SCT025 BKN060
     FM132300 23016G28KT 5SM -TSRA BR BKN025CB OVC050
     FM140300 32015G25KT 5SM -SHRA BR BKN009 OVC025
     FM140700 33013G21KT 6SM BR BKN011 OVC025=



000
FTUS43 KSGF 131500 AAB
TAFSGF
TAF AMD
KSGF 131558Z 1316/1412 19017G29KT P6SM VCSH FEW035 BKN090 OVC110
     FM131900 18020G28KT P6SM SCT025 BKN050
     FM132300 21013G26KT 5SM -TSRA BR BKN025CB OVC050
     FM140400 32014G24KT 5SM -SHRA BR OVC008
     FM140800 33013G22KT 6SM BR BKN008 OVC020=



000
FTUS43 KSGF 131400 AAA
TAFSGF
TAF AMD
KSGF 131407Z 1314/1412 17015KT P6SM VCSH SCT060 OVC100
     FM131500 17020G28KT 6SM -SHRA SCT025 OVC070
     FM131800 18020G28KT P6SM SCT025 BKN050
     FM140100 21013G26KT 5SM -TSRA BR BKN025CB OVC050
     FM140400 32014G24KT 5SM -SHRA BR OVC008
     FM140800 33013G22KT 6SM BR BKN008 OVC020=



000
FTUS43 KSGF 131100
TAFJLN
TAF
KJLN 131131Z 1312/1412 19016G30KT P6SM VCSH SCT050CB OVC120
      WS020/20050KT
      TEMPO 1312/1316 6SM -SHRA BKN050
     FM131700 19022G30KT P6SM SCT025 BKN060
     FM132300 23016G28KT 5SM -TSRA BR BKN025CB OVC050
     FM140300 32015G25KT 5SM -SHRA BR BKN009 OVC025
     FM140700 33013G21KT 6SM BR BKN011 OVC025=



000
FTUS43 KSGF 131100
TAFSGF
TAF
KSGF 131131Z 1312/1412 18013KT P6SM VCSH SCT060 OVC100
      WS020/20045KT
     FM131400 17020G28KT 6SM -SHRA SCT025 OVC070
     FM131800 18020G28KT P6SM SCT025 BKN050
     FM140100 21013G26KT 5SM -TSRA BR BKN025CB OVC050
     FM140400 32014G24KT 5SM -SHRA BR OVC008
     FM140800 33013G22KT 6SM BR BKN008 OVC020=



000
FTUS43 KSGF 130800 AAA
TAFJLN
TAF AMD
KJLN 130852Z 1309/1406 19016G30KT P6SM VCTS SCT060CB BKN150
      WS020/20050KT
     FM131600 19022G30KT 6SM -SHRA OVC025 PROB30 1318/1321 5SM -TSRA
      BR OVC015CB
     FM132100 19020G30KT 5SM -TSRA BR OVC015CB
     FM140100 29015G25KT 5SM -SHRA BR OVC015=



    US Dept of Commerce
    National Oceanic and Atmospheric Administration
    National Weather Service
    1325 East West Highway
    Silver Spring, MD 20910
    Page Author: NWS Internet Services Team
Disclaimer
Information Quality
Credits
Glossary
Privacy Policy
Freedom of Information Act (FOIA)
About Us
Career Opportunities